Time;durP1;ratioP1;P1;durP2;ratioP2;P2;SDS_P1;SDS_P2;PMS_P1;PMS_P2;Temp;Humidity;BMP_temperature;BMP_pressure;BME280_temperature;BME280_humidity;BME280_pressure;Samples;Min_cycle;Max_cycle;Signal;HPM_P1;HPM_P2
2022/06/01 03:03:59;;;;;;;0.00;0.00;;;;;;;;;;5434667;22;20045;-65
2022/06/01 03:06:25;;;;;;;0.00;0.00;;;;;;;;;;5050609;28;20021;-64
2022/06/01 03:08:50;;;;;;;0.00;0.00;;;;;;;;;;5050929;28;20152;-65
2022/06/01 03:11:16;;;;;;;0.00;0.00;;;;;;;;;;5049936;28;20363;-64
2022/06/01 03:13:41;;;;;;;0.00;0.00;;;;;;;;;;5051071;28;20021;-64
2022/06/01 03:16:06;;;;;;;0.00;0.00;;;;;;;;;;5050520;28;20021;-64
2022/06/01 03:18:32;;;;;;;0.00;0.00;;;;;;;;;;5070389;28;20469;-64
2022/06/01 03:20:58;;;;;;;0.00;0.00;;;;;;;;;;5052912;28;20024;-64
2022/06/01 03:23:24;;;;;;;0.00;0.00;;;;;;;;;;5071005;28;20114;-64
2022/06/01 03:25:49;;;;;;;0.00;0.00;;;;;;;;;;5070313;28;20465;-63
2022/06/01 03:28:15;;;;;;;0.00;0.00;;;;;;;;;;5070145;28;20025;-64
2022/06/01 03:30:40;;;;;;;0.00;0.00;;;;;;;;;;5069479;28;20013;-64
2022/06/01 03:33:06;;;;;;;0.00;0.00;;;;;;;;;;5069880;28;20020;-63
2022/06/01 03:35:32;;;;;;;0.00;0.00;;;;;;;;;;5070040;28;20460;-65
2022/06/01 03:37:58;;;;;;;0.00;0.00;;;;;;;;;;5070534;28;20025;-64
2022/06/01 03:40:23;;;;;;;0.00;0.00;;;;;;;;;;5048052;28;20035;-65
2022/06/01 03:42:48;;;;;;;0.00;0.00;;;;;;;;;;5063838;28;20385;-65
2022/06/01 03:47:57;;;;;;;0.00;0.00;;;;;;;;;;5069658;28;20093;-64
2022/06/01 03:50:23;;;;;;;0.00;0.00;;;;;;;;;;5069528;28;20751;-64
2022/06/01 03:52:49;;;;;;;1.65;1.65;;;;;;;;;;5068307;28;20115;-64
2022/06/01 03:55:14;;;;;;;0.00;0.00;;;;;;;;;;5067585;28;20021;-63
2022/06/01 03:57:41;;;;;;;0.00;0.00;;;;;;;;;;5069791;28;20013;-65
2022/06/01 04:00:07;;;;;;;0.20;0.20;;;;;;;;;;5068152;28;20035;-64
2022/06/01 04:02:32;;;;;;;0.10;0.10;;;;;;;;;;5068873;28;20473;-65
2022/06/01 04:04:58;;;;;;;0.00;0.00;;;;;;;;;;5069829;28;20036;-65
2022/06/01 04:07:24;;;;;;;0.00;0.00;;;;;;;;;;5068937;28;20021;-64
2022/06/01 04:09:49;;;;;;;0.00;0.00;;;;;;;;;;5069747;28;20023;-64
2022/06/01 04:12:14;;;;;;;0.00;0.00;;;;;;;;;;5068170;28;20012;-64
2022/06/01 04:14:39;;;;;;;0.00;0.00;;;;;;;;;;5068602;28;20106;-65
2022/06/01 04:17:05;;;;;;;0.00;0.00;;;;;;;;;;5069356;28;20029;-63
2022/06/01 04:19:30;;;;;;;0.00;0.00;;;;;;;;;;5069117;28;20074;-65
2022/06/01 04:21:55;;;;;;;0.00;0.00;;;;;;;;;;5068206;28;20017;-65
2022/06/01 04:24:24;;;;;;;0.00;0.00;;;;;;;;;;5068850;28;20031;-65
2022/06/01 04:26:49;;;;;;;0.00;0.00;;;;;;;;;;5068848;28;20032;-65
2022/06/01 04:29:15;;;;;;;0.00;0.00;;;;;;;;;;5067758;28;20017;-64
2022/06/01 04:31:40;;;;;;;0.00;0.00;;;;;;;;;;5068942;28;20373;-64
2022/06/01 04:34:06;;;;;;;0.10;0.10;;;;;;;;;;5069191;28;20025;-65
2022/06/01 04:36:31;;;;;;;0.05;0.05;;;;;;;;;;5069215;28;20036;-65
2022/06/01 04:38:56;;;;;;;0.00;0.00;;;;;;;;;;5069595;28;20488;-65
2022/06/01 04:41:21;;;;;;;0.08;0.08;;;;;;;;;;5067815;28;20393;-63
2022/06/01 04:43:47;;;;;;;0.00;0.00;;;;;;;;;;5069133;28;20469;-64
2022/06/01 04:46:12;;;;;;;0.00;0.00;;;;;;;;;;5068600;28;20031;-64
2022/06/01 04:48:37;;;;;;;0.00;0.00;;;;;;;;;;5069266;28;20039;-64
2022/06/01 04:51:03;;;;;;;0.00;0.00;;;;;;;;;;5068784;28;20024;-64
2022/06/01 04:53:28;;;;;;;0.00;0.00;;;;;;;;;;5069207;28;20033;-64
2022/06/01 04:55:53;;;;;;;0.00;0.00;;;;;;;;;;5068853;28;20453;-64
2022/06/01 04:58:19;;;;;;;0.00;0.00;;;;;;;;;;5067037;28;20082;-64
2022/06/01 05:00:45;;;;;;;0.00;0.00;;;;;;;;;;5068287;28;20028;-64
2022/06/01 05:03:10;;;;;;;0.00;0.00;;;;;;;;;;5067924;28;20068;-63
2022/06/01 05:05:39;;;;;;;0.00;0.00;;;;;;;;;;5069209;28;20027;-64
2022/06/01 05:08:05;;;;;;;0.00;0.00;;;;;;;;;;5068828;28;20106;-64
2022/06/01 05:10:31;;;;;;;0.00;0.00;;;;;;;;;;5068820;28;20131;-64
2022/06/01 05:12:56;;;;;;;0.00;0.00;;;;;;;;;;5069565;28;20017;-65
2022/06/01 05:15:21;;;;;;;1.10;1.10;;;;;;;;;;5068272;28;20021;-64
2022/06/01 05:17:46;;;;;;;0.00;0.00;;;;;;;;;;5068664;28;20024;-64
2022/06/01 05:20:13;;;;;;;0.00;0.00;;;;;;;;;;5067942;28;20036;-64
2022/06/01 05:22:39;;;;;;;0.00;0.00;;;;;;;;;;5068076;28;20086;-64
2022/06/01 05:25:04;;;;;;;0.00;0.00;;;;;;;;;;5067510;28;20020;-65
2022/06/01 05:27:30;;;;;;;0.00;0.00;;;;;;;;;;5066932;28;20035;-63
2022/06/01 05:29:56;;;;;;;0.47;0.47;;;;;;;;;;5068590;28;20017;-63
2022/06/01 05:32:21;;;;;;;0.00;0.00;;;;;;;;;;5066840;28;20346;-64
2022/06/01 05:34:47;;;;;;;0.00;0.00;;;;;;;;;;5064116;28;20052;-64
2022/06/01 05:37:12;;;;;;;0.95;0.57;;;;;;;;;;5062473;28;20032;-63
2022/06/01 05:39:37;;;;;;;0.00;0.00;;;;;;;;;;5066221;28;20024;-63
2022/06/01 05:42:02;;;;;;;0.00;0.00;;;;;;;;;;5067572;28;20013;-63
2022/06/01 05:44:28;;;;;;;0.22;0.22;;;;;;;;;;5070834;28;20476;-64
2022/06/01 05:46:54;;;;;;;0.95;0.95;;;;;;;;;;5071676;28;20024;-63
2022/06/01 05:49:19;;;;;;;0.00;0.00;;;;;;;;;;5072816;28;20111;-64
2022/06/01 05:51:44;;;;;;;0.00;0.00;;;;;;;;;;5067963;28;20521;-64
2022/06/01 05:54:09;;;;;;;0.00;0.00;;;;;;;;;;5068096;28;20017;-64
2022/06/01 05:56:35;;;;;;;0.00;0.00;;;;;;;;;;5070501;28;20267;-64
2022/06/01 05:59:00;;;;;;;0.00;0.00;;;;;;;;;;5071044;28;20020;-64
2022/06/01 06:01:25;;;;;;;0.00;0.00;;;;;;;;;;5070858;28;20358;-64
2022/06/01 06:03:50;;;;;;;0.00;0.00;;;;;;;;;;5071292;28;20110;-63
2022/06/01 06:06:16;;;;;;;0.00;0.00;;;;;;;;;;5071380;28;20029;-63
2022/06/01 06:08:43;;;;;;;0.00;0.00;;;;;;;;;;5070998;28;20027;-63
2022/06/01 06:11:09;;;;;;;0.00;0.00;;;;;;;;;;5070470;28;20500;-64
2022/06/01 06:13:34;;;;;;;0.00;0.00;;;;;;;;;;5071267;28;20020;-65
2022/06/01 06:16:00;;;;;;;0.10;0.10;;;;;;;;;;5071378;28;20021;-64
2022/06/01 06:18:25;;;;;;;0.00;0.00;;;;;;;;;;5070628;28;20024;-64
2022/06/01 06:20:50;;;;;;;1.55;1.55;;;;;;;;;;5071000;28;20016;-64
2022/06/01 06:23:16;;;;;;;0.00;0.00;;;;;;;;;;5069976;28;20029;-64
2022/06/01 06:25:41;;;;;;;0.00;0.00;;;;;;;;;;5070799;28;20027;-64
2022/06/01 06:28:06;;;;;;;0.00;0.00;;;;;;;;;;5070646;28;20061;-63
2022/06/01 06:30:32;;;;;;;0.52;0.52;;;;;;;;;;5070848;28;20036;-63
2022/06/01 06:32:57;;;;;;;0.30;0.30;;;;;;;;;;5071074;28;20504;-63
2022/06/01 06:35:22;;;;;;;0.00;0.00;;;;;;;;;;5070481;28;20017;-64
2022/06/01 06:37:47;;;;;;;0.00;0.00;;;;;;;;;;5071011;28;20734;-65
2022/06/01 06:40:13;;;;;;;0.10;0.10;;;;;;;;;;5070235;28;20508;-65
2022/06/01 06:42:39;;;;;;;0.00;0.00;;;;;;;;;;5070456;28;20508;-64
2022/06/01 06:45:05;;;;;;;0.00;0.00;;;;;;;;;;5052169;28;20078;-65
2022/06/01 06:47:32;;;;;;;0.00;0.00;;;;;;;;;;5070525;28;20421;-65
2022/06/01 06:49:57;;;;;;;0.00;0.00;;;;;;;;;;5070645;28;20009;-64
2022/06/01 06:52:23;;;;;;;0.00;0.00;;;;;;;;;;5067625;28;20024;-64
2022/06/01 06:54:48;;;;;;;0.00;0.00;;;;;;;;;;5067644;28;20025;-65
2022/06/01 06:57:13;;;;;;;0.00;0.00;;;;;;;;;;5069290;28;20469;-64
2022/06/01 06:59:38;;;;;;;0.00;0.00;;;;;;;;;;5069226;28;20026;-65
2022/06/01 07:02:06;;;;;;;0.00;0.00;;;;;;;;;;5067186;28;20115;-65
2022/06/01 07:04:32;;;;;;;0.00;0.00;;;;;;;;;;5070642;28;20048;-65
2022/06/01 07:06:57;;;;;;;0.00;0.00;;;;;;;;;;5068468;28;20033;-64
2022/06/01 07:09:23;;;;;;;0.00;0.00;;;;;;;;;;5069706;28;20024;-64
2022/06/01 07:11:48;;;;;;;0.32;0.32;;;;;;;;;;5069796;28;20398;-65
2022/06/01 07:14:13;;;;;;;0.00;0.00;;;;;;;;;;5069419;28;20020;-65
2022/06/01 07:16:38;;;;;;;0.00;0.00;;;;;;;;;;5069814;28;20243;-64
2022/06/01 07:19:05;;;;;;;0.00;0.00;;;;;;;;;;5070040;28;20389;-64
2022/06/01 07:21:31;;;;;;;0.00;0.00;;;;;;;;;;5067014;28;20295;-63
2022/06/01 07:23:56;;;;;;;0.00;0.00;;;;;;;;;;5051094;28;20067;-63
2022/06/01 07:26:23;;;;;;;0.00;0.00;;;;;;;;;;5065951;28;20028;-64
2022/06/01 07:28:49;;;;;;;0.10;0.10;;;;;;;;;;5067016;28;20063;-64
2022/06/01 07:31:15;;;;;;;0.00;0.00;;;;;;;;;;5068259;28;20047;-63
2022/06/01 07:33:40;;;;;;;0.00;0.00;;;;;;;;;;5068345;28;20025;-65
2022/06/01 07:36:07;;;;;;;0.00;0.00;;;;;;;;;;5067731;28;20020;-63
2022/06/01 07:44:06;;;;;;;0.00;0.00;;;;;;;;;;5068539;28;20039;-63
2022/06/01 07:46:33;;;;;;;0.00;0.00;;;;;;;;;;5067474;28;20040;-64
2022/06/01 07:48:58;;;;;;;0.00;0.00;;;;;;;;;;5067790;28;20033;-64
2022/06/01 07:51:23;;;;;;;0.00;0.00;;;;;;;;;;5064413;28;20027;-64
2022/06/01 07:53:48;;;;;;;0.27;0.27;;;;;;;;;;5068312;28;20024;-64
2022/06/01 07:56:13;;;;;;;0.00;0.00;;;;;;;;;;5066838;28;20277;-64
2022/06/01 07:58:39;;;;;;;0.00;0.00;;;;;;;;;;5066351;28;20060;-64
2022/06/01 08:01:04;;;;;;;0.03;0.03;;;;;;;;;;5068045;28;20289;-65
2022/06/01 08:03:30;;;;;;;0.00;0.00;;;;;;;;;;5066074;28;20326;-65
2022/06/01 08:05:55;;;;;;;0.00;0.00;;;;;;;;;;5068588;28;20515;-65
2022/06/01 08:08:20;;;;;;;0.00;0.00;;;;;;;;;;5049757;28;20406;-63
2022/06/01 08:10:46;;;;;;;0.00;0.00;;;;;;;;;;5069198;28;20026;-65
2022/06/01 08:13:12;;;;;;;0.00;0.00;;;;;;;;;;5068513;28;20039;-64
2022/06/01 08:15:37;;;;;;;0.00;0.00;;;;;;;;;;5069113;28;20028;-64
2022/06/01 08:18:03;;;;;;;0.10;0.10;;;;;;;;;;5068597;28;20024;-65
2022/06/01 08:20:29;;;;;;;0.00;0.00;;;;;;;;;;5067411;28;21069;-65
2022/06/01 08:22:55;;;;;;;0.00;0.00;;;;;;;;;;5068134;28;20028;-65
2022/06/01 08:25:20;;;;;;;0.32;0.32;;;;;;;;;;5068172;28;20040;-65
2022/06/01 08:27:46;;;;;;;0.00;0.00;;;;;;;;;;5068950;28;20442;-64
2022/06/01 08:30:12;;;;;;;0.00;0.00;;;;;;;;;;5068497;28;20021;-65
2022/06/01 08:32:37;;;;;;;0.00;0.00;;;;;;;;;;5069081;28;20085;-64
2022/06/01 08:35:07;;;;;;;0.15;0.15;;;;;;;;;;5068957;28;20478;-65
2022/06/01 08:37:32;;;;;;;0.00;0.00;;;;;;;;;;5067859;28;20120;-65
2022/06/01 08:39:57;;;;;;;0.00;0.00;;;;;;;;;;5068430;28;21047;-65
2022/06/01 08:42:23;;;;;;;0.00;0.00;;;;;;;;;;5051360;28;20363;-65
2022/06/01 08:44:50;;;;;;;0.00;0.00;;;;;;;;;;5049180;28;20755;-64
2022/06/01 08:47:27;;;;;;;0.00;0.00;;;;;;;;;;5065845;28;20028;-65
2022/06/01 08:49:55;;;;;;;0.00;0.00;;;;;;;;;;5068346;28;20024;-65
2022/06/01 08:52:21;;;;;;;0.00;0.00;;;;;;;;;;5067501;28;20028;-64
2022/06/01 08:54:46;;;;;;;0.00;0.00;;;;;;;;;;5068232;28;20021;-65
2022/06/01 08:57:15;;;;;;;4.03;1.17;;;;;;;;;;5066557;28;20031;-66
2022/06/01 08:59:40;;;;;;;;;;;;;;;;;;5050550;28;20159;-65
2022/06/01 09:02:08;;;;;;;0.00;0.00;;;;;;;;;;5067270;28;20339;-64
2022/06/01 09:04:53;;;;;;;0.00;0.00;;;;;;;;;;5068124;28;20048;-65
2022/06/01 09:07:33;;;;;;;0.00;0.00;;;;;;;;;;5068504;28;20033;-63
2022/06/01 09:10:14;;;;;;;0.00;0.00;;;;;;;;;;5068855;28;20045;-63
2022/06/01 09:12:43;;;;;;;0.00;0.00;;;;;;;;;;5068911;28;20028;-63
2022/06/01 09:15:12;;;;;;;0.00;0.00;;;;;;;;;;5067923;28;20036;-64
2022/06/01 09:17:39;;;;;;;0.00;0.00;;;;;;;;;;5067753;28;20448;-64
2022/06/01 09:22:53;;;;;;;0.00;0.00;;;;;;;;;;5071366;28;20044;-64
2022/06/01 09:25:19;;;;;;;0.00;0.00;;;;;;;;;;5069790;28;20040;-64
2022/06/01 09:27:49;;;;;;;0.00;0.00;;;;;;;;;;5071980;28;20020;-64
2022/06/01 09:30:18;;;;;;;2.72;1.23;;;;;;;;;;5071819;28;20070;-64
2022/06/01 09:32:57;;;;;;;0.88;0.88;;;;;;;;;;5071921;28;20028;-64
2022/06/01 09:35:26;;;;;;;0.00;0.00;;;;;;;;;;5071280;28;20029;-62
2022/06/01 09:37:51;;;;;;;0.00;0.00;;;;;;;;;;5070848;28;20028;-64
2022/06/01 09:40:20;;;;;;;0.00;0.00;;;;;;;;;;5070854;28;20024;-64
2022/06/01 09:42:48;;;;;;;0.00;0.00;;;;;;;;;;5052582;28;20020;-64
2022/06/01 09:45:20;;;;;;;0.00;0.00;;;;;;;;;;5068760;28;20026;-64
2022/06/01 09:47:47;;;;;;;0.00;0.00;;;;;;;;;;5070572;28;20028;-65
2022/06/01 09:50:21;;;;;;;0.15;0.15;;;;;;;;;;5071362;28;20016;-64
2022/06/01 09:52:48;;;;;;;0.00;0.00;;;;;;;;;;5071787;28;20114;-64
2022/06/01 09:55:13;;;;;;;0.00;0.00;;;;;;;;;;5070648;28;20025;-64
2022/06/01 09:57:38;;;;;;;0.00;0.00;;;;;;;;;;5070685;28;20047;-63
2022/06/01 10:06:09;;;;;;;0.00;0.00;;;;;;;;;;5071417;28;20435;-64
2022/06/01 10:08:42;;;;;;;;;;;;;;;;;;5050007;28;20029;-64
2022/06/01 10:11:19;;;;;;;0.00;0.00;;;;;;;;;;5068775;28;19908;-64
2022/06/01 10:14:30;;;;;;;0.00;0.00;;;;;;;;;;5070593;28;20034;-64
2022/06/01 10:17:16;;;;;;;0.00;0.00;;;;;;;;;;5072984;28;20091;-65
2022/06/01 10:19:41;;;;;;;0.00;0.00;;;;;;;;;;5066563;28;20028;-63
2022/06/01 10:22:12;;;;;;;0.00;0.00;;;;;;;;;;5071497;28;20575;-64
2022/06/01 10:24:44;;;;;;;0.00;0.00;;;;;;;;;;5071824;28;20074;-64
2022/06/01 10:27:10;;;;;;;0.00;0.00;;;;;;;;;;5068901;28;20040;-65
2022/06/01 10:29:38;;;;;;;0.00;0.00;;;;;;;;;;5070458;28;20020;-64
2022/06/01 10:32:04;;;;;;;0.00;0.00;;;;;;;;;;5069970;28;20017;-64
2022/06/01 10:34:32;;;;;;;0.00;0.00;;;;;;;;;;5070208;28;20577;-65
2022/06/01 10:37:00;;;;;;;0.00;0.00;;;;;;;;;;5070190;28;20630;-65
2022/06/01 10:39:34;;;;;;;0.00;0.00;;;;;;;;;;5069638;28;20081;-65
2022/06/01 10:41:59;;;;;;;0.00;0.00;;;;;;;;;;5069370;28;20109;-63
2022/06/01 10:44:28;;;;;;;0.10;0.10;;;;;;;;;;5069080;28;20124;-64
2022/06/01 10:46:57;;;;;;;0.00;0.00;;;;;;;;;;5069439;28;20025;-64
2022/06/01 10:49:22;;;;;;;0.00;0.00;;;;;;;;;;5068664;28;20643;-64
2022/06/01 10:51:54;;;;;;;0.00;0.00;;;;;;;;;;5070624;28;20016;-64
2022/06/01 10:54:26;;;;;;;0.00;0.00;;;;;;;;;;5069442;28;20254;-63
2022/06/01 10:56:51;;;;;;;0.00;0.00;;;;;;;;;;5069778;28;20570;-64
2022/06/01 10:59:17;;;;;;;0.00;0.00;;;;;;;;;;5070107;28;20048;-64
2022/06/01 11:01:54;;;;;;;0.00;0.00;;;;;;;;;;5070470;28;20031;-64
2022/06/01 11:04:22;;;;;;;0.00;0.00;;;;;;;;;;5069190;28;20132;-64
2022/06/01 11:06:50;;;;;;;0.10;0.10;;;;;;;;;;5068964;28;20394;-65
2022/06/01 11:09:15;;;;;;;0.00;0.00;;;;;;;;;;5067576;28;20025;-64
2022/06/01 11:11:56;;;;;;;0.00;0.00;;;;;;;;;;5069139;28;20035;-65
2022/06/01 11:14:21;;;;;;;0.60;0.60;;;;;;;;;;5068946;28;20021;-64
2022/06/01 11:17:08;;;;;;;0.00;0.00;;;;;;;;;;5069779;28;20590;-64
2022/06/01 11:19:39;;;;;;;0.00;0.00;;;;;;;;;;5067444;28;20028;-64
2022/06/01 11:22:17;;;;;;;0.00;0.00;;;;;;;;;;5051669;28;20093;-63
2022/06/01 11:24:57;;;;;;;0.00;0.00;;;;;;;;;;5069062;28;20028;-63
2022/06/01 11:27:25;;;;;;;0.00;0.00;;;;;;;;;;5068418;28;20025;-64
2022/06/01 11:30:05;;;;;;;0.00;0.00;;;;;;;;;;5070012;28;20488;-65
2022/06/01 11:32:57;;;;;;;0.00;0.00;;;;;;;;;;5067606;28;20032;-65
2022/06/01 11:35:44;;;;;;;0.00;0.00;;;;;;;;;;5057472;28;20043;-64
2022/06/01 11:38:14;;;;;;;0.00;0.00;;;;;;;;;;5068445;28;20021;-64
2022/06/01 11:40:52;;;;;;;0.00;0.00;;;;;;;;;;5067965;28;20420;-65
2022/06/01 11:43:29;;;;;;;0.00;0.00;;;;;;;;;;5067587;28;20012;-63
2022/06/01 11:45:59;;;;;;;0.00;0.00;;;;;;;;;;5065652;28;20012;-64
2022/06/01 11:48:28;;;;;;;0.00;0.00;;;;;;;;;;5045884;28;20112;-63
2022/06/01 11:50:54;;;;;;;0.00;0.00;;;;;;;;;;5064574;28;20024;-64
2022/06/01 11:53:21;;;;;;;0.00;0.00;;;;;;;;;;5068822;28;20492;-64
2022/06/01 11:55:48;;;;;;;0.00;0.00;;;;;;;;;;5069477;28;20436;-63
2022/06/01 11:58:26;;;;;;;0.00;0.00;;;;;;;;;;5069561;28;20055;-64
2022/06/01 12:00:52;;;;;;;0.32;0.32;;;;;;;;;;5069084;28;20095;-63
2022/06/01 12:03:17;;;;;;;0.00;0.00;;;;;;;;;;5068588;28;20095;-65
2022/06/01 12:06:01;;;;;;;0.00;0.00;;;;;;;;;;5069014;28;20020;-63
2022/06/01 12:08:30;;;;;;;0.00;0.00;;;;;;;;;;5068532;28;20294;-64
2022/06/01 12:10:59;;;;;;;0.00;0.00;;;;;;;;;;5067589;28;20020;-65
2022/06/01 12:13:26;;;;;;;0.00;0.00;;;;;;;;;;5068475;28;20528;-64
2022/06/01 12:16:06;;;;;;;0.00;0.00;;;;;;;;;;5069425;28;20115;-63
2022/06/01 12:18:32;;;;;;;0.00;0.00;;;;;;;;;;5068872;28;20024;-63
2022/06/01 12:21:17;;;;;;;0.00;0.00;;;;;;;;;;5069673;28;20021;-64
2022/06/01 12:29:31;;;;;;;0.00;0.00;;;;;;;;;;5068513;28;20035;-65
2022/06/01 12:31:56;;;;;;;0.00;0.00;;;;;;;;;;5065366;28;20034;-63
2022/06/01 12:34:33;;;;;;;0.00;0.00;;;;;;;;;;5065006;28;20182;-64
2022/06/01 12:37:06;;;;;;;0.00;0.00;;;;;;;;;;5067943;28;20032;-62
2022/06/01 12:39:37;;;;;;;0.00;0.00;;;;;;;;;;5064728;28;20024;-63
2022/06/01 12:42:19;;;;;;;0.00;0.00;;;;;;;;;;5068347;28;20470;-63
2022/06/01 12:44:47;;;;;;;0.10;0.10;;;;;;;;;;5068111;28;20042;-63
2022/06/01 12:47:27;;;;;;;0.00;0.00;;;;;;;;;;5066006;28;20044;-64
2022/06/01 12:49:53;;;;;;;0.00;0.00;;;;;;;;;;5066897;28;20031;-62
2022/06/01 12:52:18;;;;;;;0.00;0.00;;;;;;;;;;5069422;28;20028;-63
2022/06/01 12:54:54;;;;;;;0.00;0.00;;;;;;;;;;5071734;28;20023;-63
2022/06/01 12:57:24;;;;;;;0.00;0.00;;;;;;;;;;5070842;28;20247;-64
2022/06/01 12:59:55;;;;;;;0.00;0.00;;;;;;;;;;5071907;28;20579;-64
2022/06/01 13:02:22;;;;;;;0.00;0.00;;;;;;;;;;5070970;28;20024;-64
2022/06/01 13:04:51;;;;;;;0.52;0.52;;;;;;;;;;5071872;28;20051;-64
2022/06/01 13:07:17;;;;;;;0.00;0.00;;;;;;;;;;5070418;28;20066;-63
2022/06/01 13:09:42;;;;;;;0.00;0.00;;;;;;;;;;5070842;28;20424;-62
2022/06/01 13:12:15;;;;;;;0.08;0.08;;;;;;;;;;5071416;28;20017;-63
2022/06/01 13:14:44;;;;;;;0.00;0.00;;;;;;;;;;5068793;28;20086;-63
2022/06/01 13:17:14;;;;;;;0.00;0.00;;;;;;;;;;5066739;28;20029;-63
2022/06/01 13:19:39;;;;;;;0.00;0.00;;;;;;;;;;5069831;28;20046;-63
2022/06/01 13:22:25;;;;;;;0.00;0.00;;;;;;;;;;5053314;28;20103;-63
2022/06/01 13:24:55;;;;;;;0.00;0.00;;;;;;;;;;5070428;28;20036;-63
2022/06/01 13:27:20;;;;;;;0.00;0.00;;;;;;;;;;5068322;28;20035;-62
2022/06/01 13:29:48;;;;;;;0.00;0.00;;;;;;;;;;5071518;28;20381;-63
2022/06/01 13:32:14;;;;;;;0.00;0.00;;;;;;;;;;5071699;28;20017;-63
2022/06/01 13:34:44;;;;;;;0.00;0.00;;;;;;;;;;5071878;28;20052;-63
2022/06/01 13:37:19;;;;;;;0.00;0.00;;;;;;;;;;5070440;28;20028;-64
2022/06/01 13:39:58;;;;;;;1.27;0.22;;;;;;;;;;5071325;28;20017;-64
2022/06/01 13:42:23;;;;;;;0.00;0.00;;;;;;;;;;5070225;28;20067;-64
2022/06/01 13:44:50;;;;;;;0.00;0.00;;;;;;;;;;5068993;28;20064;-64
2022/06/01 13:47:18;;;;;;;0.10;0.10;;;;;;;;;;5070958;28;20017;-63
2022/06/01 13:49:44;;;;;;;0.00;0.00;;;;;;;;;;5068230;28;20134;-64
2022/06/01 13:52:12;;;;;;;0.00;0.00;;;;;;;;;;5069650;28;20532;-64
2022/06/01 13:54:38;;;;;;;3.42;1.42;;;;;;;;;;5052134;28;20070;-64
2022/06/01 13:57:06;;;;;;;0.00;0.00;;;;;;;;;;5069889;28;20673;-64
2022/06/01 13:59:33;;;;;;;0.00;0.00;;;;;;;;;;5070077;28;20048;-65
2022/06/01 14:02:03;;;;;;;0.00;0.00;;;;;;;;;;5069811;28;20027;-64
2022/06/01 14:04:31;;;;;;;0.00;0.00;;;;;;;;;;5068042;28;20102;-65
2022/06/01 14:07:07;;;;;;;0.00;0.00;;;;;;;;;;5069458;28;20032;-64
2022/06/01 14:09:41;;;;;;;0.00;0.00;;;;;;;;;;5068469;28;20572;-65
2022/06/01 14:12:14;;;;;;;0.00;0.00;;;;;;;;;;5069942;28;20563;-64
2022/06/01 14:14:41;;;;;;;0.00;0.00;;;;;;;;;;5069248;28;20469;-65
2022/06/01 14:17:08;;;;;;;0.00;0.00;;;;;;;;;;5070068;28;20023;-64
2022/06/01 14:19:34;;;;;;;0.38;0.35;;;;;;;;;;5069360;28;20025;-64
2022/06/01 14:21:59;;;;;;;0.00;0.00;;;;;;;;;;5069364;28;20032;-64
2022/06/01 14:24:24;;;;;;;0.00;0.00;;;;;;;;;;5068692;28;20029;-62
2022/06/01 14:29:34;;;;;;;0.35;0.35;;;;;;;;;;5068365;28;20040;-65
2022/06/01 14:31:59;;;;;;;0.00;0.00;;;;;;;;;;5070035;28;20378;-65
2022/06/01 14:34:31;;;;;;;0.00;0.00;;;;;;;;;;5067884;28;20016;-65
2022/06/01 14:36:59;;;;;;;0.00;0.00;;;;;;;;;;5068741;28;20051;-66
2022/06/01 14:39:28;;;;;;;0.00;0.00;;;;;;;;;;5061184;28;20045;-65
2022/06/01 14:41:53;;;;;;;0.00;0.00;;;;;;;;;;5069734;28;20465;-66
2022/06/01 14:44:20;;;;;;;0.00;0.00;;;;;;;;;;5069873;28;20085;-66
2022/06/01 14:46:45;;;;;;;0.00;0.00;;;;;;;;;;5069188;28;20154;-66
2022/06/01 14:49:13;;;;;;;0.17;0.17;;;;;;;;;;5071360;28;20104;-66
2022/06/01 14:51:40;;;;;;;0.00;0.00;;;;;;;;;;5068723;28;20096;-66
2022/06/01 14:54:06;;;;;;;0.00;0.00;;;;;;;;;;5070107;28;20029;-67
2022/06/01 14:56:32;;;;;;;0.00;0.00;;;;;;;;;;5069951;28;20032;-65
2022/06/01 14:59:01;;;;;;;0.00;0.00;;;;;;;;;;5069157;28;20715;-66
2022/06/01 15:01:30;;;;;;;0.00;0.00;;;;;;;;;;5068721;28;20066;-66
2022/06/01 15:03:55;;;;;;;0.00;0.00;;;;;;;;;;5069353;28;20040;-66
2022/06/01 15:06:21;;;;;;;0.00;0.00;;;;;;;;;;5069790;28;20107;-67
2022/06/01 15:08:46;;;;;;;0.00;0.00;;;;;;;;;;5069552;28;20043;-66
2022/06/01 15:11:11;;;;;;;0.00;0.00;;;;;;;;;;5068107;28;20030;-65
2022/06/01 15:13:36;;;;;;;0.00;0.00;;;;;;;;;;5067632;28;20009;-65
2022/06/01 15:16:02;;;;;;;0.00;0.00;;;;;;;;;;5067699;28;20025;-66
2022/06/01 15:18:31;;;;;;;0.00;0.00;;;;;;;;;;5068245;28;20389;-66
2022/06/01 15:20:59;;;;;;;0.00;0.00;;;;;;;;;;5068476;28;20020;-64
2022/06/01 15:23:25;;;;;;;0.00;0.00;;;;;;;;;;5068022;28;20097;-65
2022/06/01 15:25:51;;;;;;;0.00;0.00;;;;;;;;;;5067602;28;20798;-65
2022/06/01 15:28:16;;;;;;;0.00;0.00;;;;;;;;;;5073234;28;20025;-62
2022/06/01 15:41:39;;;;;;;0.00;0.00;;;;;;;;;;5073017;28;20042;-60
2022/06/01 15:44:04;;;;;;;0.10;0.10;;;;;;;;;;5073904;28;20020;-60
2022/06/01 15:46:33;;;;;;;0.00;0.00;;;;;;;;;;5073870;28;20032;-60
2022/06/01 15:49:03;;;;;;;0.00;0.00;;;;;;;;;;5073434;28;20028;-60
2022/06/01 15:51:29;;;;;;;0.20;0.20;;;;;;;;;;5073392;28;20393;-61
2022/06/01 15:53:57;;;;;;;0.08;0.08;;;;;;;;;;5073385;28;20049;-60
2022/06/01 15:56:25;;;;;;;0.00;0.00;;;;;;;;;;5072969;28;20025;-61
2022/06/01 15:58:51;;;;;;;0.00;0.00;;;;;;;;;;5073194;28;20104;-60
2022/06/01 16:01:16;;;;;;;0.08;0.08;;;;;;;;;;5073595;28;20410;-59
2022/06/01 16:03:43;;;;;;;0.00;0.00;;;;;;;;;;5072897;28;20091;-61
2022/06/01 16:06:09;;;;;;;0.10;0.10;;;;;;;;;;5072515;28;20103;-60
2022/06/01 16:08:37;;;;;;;0.38;0.30;;;;;;;;;;5072169;28;20480;-59
2022/06/01 16:11:02;;;;;;;0.00;0.00;;;;;;;;;;5072664;28;20458;-60
2022/06/01 16:13:27;;;;;;;0.00;0.00;;;;;;;;;;5072502;28;20032;-59
2022/06/01 16:15:53;;;;;;;0.00;0.00;;;;;;;;;;5072737;28;20032;-59
2022/06/01 16:18:19;;;;;;;0.00;0.00;;;;;;;;;;5070785;28;20028;-59
2022/06/01 16:20:44;;;;;;;0.00;0.00;;;;;;;;;;5069996;28;20019;-60
2022/06/01 16:23:10;;;;;;;0.00;0.00;;;;;;;;;;5070107;28;20021;-60
2022/06/01 16:25:35;;;;;;;0.00;0.00;;;;;;;;;;5070041;28;20097;-60
2022/06/01 16:28:00;;;;;;;0.00;0.00;;;;;;;;;;5069861;28;20481;-61
2022/06/01 16:30:27;;;;;;;0.00;0.00;;;;;;;;;;5070267;28;20550;-61
2022/06/01 16:32:53;;;;;;;0.00;0.00;;;;;;;;;;5070117;28;20453;-61
2022/06/01 16:35:23;;;;;;;0.00;0.00;;;;;;;;;;5070779;28;20440;-59
2022/06/01 16:37:48;;;;;;;1.10;0.70;;;;;;;;;;5069092;28;20100;-60
2022/06/01 16:40:15;;;;;;;0.00;0.00;;;;;;;;;;5070700;28;20108;-61
2022/06/01 16:42:46;;;;;;;0.00;0.00;;;;;;;;;;5068822;28;20021;-60
2022/06/01 16:45:15;;;;;;;0.00;0.00;;;;;;;;;;5070079;28;20029;-61
2022/06/01 16:47:40;;;;;;;0.00;0.00;;;;;;;;;;5070031;28;20024;-60
2022/06/01 16:50:06;;;;;;;0.00;0.00;;;;;;;;;;5070077;28;20086;-60
2022/06/01 16:52:31;;;;;;;0.00;0.00;;;;;;;;;;5069927;28;20027;-60
2022/06/01 16:54:56;;;;;;;2.83;0.45;;;;;;;;;;5069685;28;20024;-61
2022/06/01 16:57:26;;;;;;;0.32;0.32;;;;;;;;;;5051631;28;20051;-62
2022/06/01 16:59:52;;;;;;;0.10;0.10;;;;;;;;;;5068226;28;20043;-62
2022/06/01 17:02:17;;;;;;;0.00;0.00;;;;;;;;;;5070670;28;20041;-60
2022/06/01 17:04:43;;;;;;;0.00;0.00;;;;;;;;;;5070737;28;20493;-60
2022/06/01 17:07:10;;;;;;;0.00;0.00;;;;;;;;;;5070394;28;20043;-60
2022/06/01 17:09:39;;;;;;;0.10;0.10;;;;;;;;;;5069473;28;20028;-60
2022/06/01 17:12:05;;;;;;;0.00;0.00;;;;;;;;;;5069715;28;20437;-59
2022/06/01 17:14:31;;;;;;;0.00;0.00;;;;;;;;;;5069555;28;20095;-62
2022/06/01 17:16:56;;;;;;;0.20;0.20;;;;;;;;;;5051786;28;20568;-60
2022/06/01 17:19:22;;;;;;;0.00;0.00;;;;;;;;;;5069748;28;20032;-61
2022/06/01 17:21:48;;;;;;;0.17;0.17;;;;;;;;;;5069412;28;20031;-60
2022/06/01 17:24:13;;;;;;;0.10;0.10;;;;;;;;;;5069623;28;20028;-61
2022/06/01 17:26:38;;;;;;;0.00;0.00;;;;;;;;;;5069234;28;20468;-60
2022/06/01 17:29:04;;;;;;;0.00;0.00;;;;;;;;;;5069493;28;20021;-61
2022/06/01 17:31:30;;;;;;;0.00;0.00;;;;;;;;;;5069236;28;20051;-61
2022/06/01 17:33:57;;;;;;;0.00;0.00;;;;;;;;;;5069989;28;20021;-60
2022/06/01 17:36:22;;;;;;;0.00;0.00;;;;;;;;;;5069877;28;20085;-60
2022/06/01 17:38:47;;;;;;;0.00;0.00;;;;;;;;;;5072199;28;20396;-60
2022/06/01 17:41:13;;;;;;;0.00;0.00;;;;;;;;;;5073265;28;20539;-61
2022/06/01 17:43:38;;;;;;;0.00;0.00;;;;;;;;;;5073016;28;20039;-60
2022/06/01 17:46:04;;;;;;;0.45;0.45;;;;;;;;;;5073268;28;20082;-61
2022/06/01 17:48:40;;;;;;;0.00;0.00;;;;;;;;;;5055104;28;20082;-61
2022/06/01 17:51:05;;;;;;;0.00;0.00;;;;;;;;;;5072893;28;20020;-61
2022/06/01 17:53:32;;;;;;;0.00;0.00;;;;;;;;;;5073190;28;20509;-61
2022/06/01 17:55:58;;;;;;;0.20;0.20;;;;;;;;;;5072792;28;20040;-61
2022/06/01 17:58:24;;;;;;;0.00;0.00;;;;;;;;;;5072821;28;20055;-61
2022/06/01 18:00:50;;;;;;;0.00;0.00;;;;;;;;;;5073014;28;20032;-59
2022/06/01 18:03:16;;;;;;;0.00;0.00;;;;;;;;;;5073154;28;20509;-60
2022/06/01 18:05:42;;;;;;;0.00;0.00;;;;;;;;;;5072873;28;20033;-60
2022/06/01 18:08:10;;;;;;;0.00;0.00;;;;;;;;;;5074341;28;20043;-61
2022/06/01 18:10:35;;;;;;;0.08;0.08;;;;;;;;;;5073484;28;20381;-59
2022/06/01 18:13:33;;;;;;;0.52;0.43;;;;;;;;;;5073165;28;20038;-61
2022/06/01 18:15:58;;;;;;;0.00;0.00;;;;;;;;;;5017317;28;20052;-61
2022/06/01 18:18:25;;;;;;;0.00;0.00;;;;;;;;;;5055193;28;20113;-60
2022/06/01 18:20:51;;;;;;;0.00;0.00;;;;;;;;;;5073652;28;20475;-61
2022/06/01 18:23:17;;;;;;;0.00;0.00;;;;;;;;;;5073118;28;20051;-61
2022/06/01 18:25:44;;;;;;;0.00;0.00;;;;;;;;;;5072772;28;20016;-60